Time;durP1;ratioP1;P1;durP2;ratioP2;P2;SDS_P1;SDS_P2;PMS_P1;PMS_P2;Temp;Humidity;BMP_temperature;BMP_pressure;BME280_temperature;BME280_humidity;BME280_pressure;Samples;Min_cycle;Max_cycle;Signal;HPM_P1;HPM_P2
2022/08/08 00:01:33;;;;;;;4.25;2.38;;;16.20;99.90;;;;;;4968668;28;20063;-79
2022/08/08 00:04:07;;;;;;;5.40;2.53;;;16.20;99.90;;;;;;4985870;28;20063;-78
2022/08/08 00:06:42;;;;;;;6.57;2.53;;;15.10;99.90;;;;;;4970899;28;20141;-78
2022/08/08 00:09:34;;;;;;;4.30;2.72;;;16.20;99.90;;;;;;4968475;28;20117;-79
2022/08/08 00:12:05;;;;;;;4.82;1.83;;;16.20;99.90;;;;;;4985172;28;20076;-80
2022/08/08 00:15:00;;;;;;;3.45;1.40;;;16.20;99.90;;;;;;4969259;28;20058;-78
2022/08/08 00:17:39;;;;;;;4.68;1.55;;;16.20;99.90;;;;;;4970552;28;20055;-79
2022/08/08 00:20:07;;;;;;;3.65;1.70;;;16.20;99.90;;;;;;4968547;28;20868;-79
2022/08/08 00:22:41;;;;;;;5.45;1.52;;;15.90;99.90;;;;;;4953542;28;20039;-79
2022/08/08 00:25:16;;;;;;;4.70;1.63;;;16.30;99.90;;;;;;4968163;28;20098;-79
2022/08/08 00:27:44;;;;;;;5.88;1.77;;;16.30;99.90;;;;;;4969115;28;20146;-78
2022/08/08 00:30:12;;;;;;;6.80;2.28;;;16.30;99.90;;;;;;4985254;28;20145;-79
2022/08/08 00:32:40;;;;;;;5.57;1.60;;;16.30;99.90;;;;;;4955058;28;20079;-79
2022/08/08 00:35:26;;;;;;;5.22;1.90;;;16.30;99.90;;;;;;4969843;28;20416;-78
2022/08/08 00:38:26;;;;;;;5.22;2.03;;;16.30;99.90;;;;;;4936640;28;20062;-78
2022/08/08 00:41:04;;;;;;;3.40;1.88;;;16.30;99.90;;;;;;4985551;28;20093;-78
2022/08/08 00:43:48;;;;;;;3.97;1.80;;;16.30;99.90;;;;;;4969280;28;20069;-78
2022/08/08 00:46:20;;;;;;;5.90;1.73;;;16.30;99.90;;;;;;4969572;28;20051;-79
2022/08/08 00:49:07;;;;;;;3.85;1.90;;;16.30;99.90;;;;;;4972916;28;20150;-78
2022/08/08 00:52:05;;;;;;;3.50;2.00;;;16.20;99.90;;;;;;4990597;28;20504;-78
2022/08/08 00:54:50;;;;;;;;;;;16.20;99.90;;;;;;4973458;28;20617;-78
2022/08/08 00:57:21;;;;;;;4.55;2.20;;;16.20;99.90;;;;;;4974295;28;20686;-77
2022/08/08 01:00:07;;;;;;;5.88;1.90;;;16.10;99.90;;;;;;4970862;28;20873;-77
2022/08/08 01:02:57;;;;;;;4.30;1.90;;;16.20;99.90;;;;;;4973098;28;20082;-79
2022/08/08 01:06:13;;;;;;;4.25;2.00;;;16.20;99.90;;;;;;4971655;28;20113;-78
2022/08/08 01:09:11;;;;;;;4.65;2.40;;;16.20;99.90;;;;;;4972638;28;20059;-78
2022/08/08 01:11:59;;;;;;;4.68;2.20;;;16.10;99.90;;;;;;4986570;28;20046;-79
2022/08/08 01:15:02;;;;;;;4.07;2.20;;;16.10;99.90;;;;;;4970314;28;20519;-78
2022/08/08 01:18:01;;;;;;;5.28;2.50;;;16.10;99.90;;;;;;4970704;28;20067;-78
2022/08/08 01:20:47;;;;;;;6.05;2.00;;;16.00;99.90;;;;;;4986376;28;20049;-78
2022/08/08 01:23:43;;;;;;;4.00;1.80;;;16.00;99.90;;;;;;4987759;28;20096;-79
2022/08/08 01:26:44;;;;;;;5.63;2.10;;;16.00;99.90;;;;;;4969454;28;20104;-78
2022/08/08 01:29:25;;;;;;;2.30;1.85;;;15.90;99.90;;;;;;4904923;28;20154;-78
2022/08/08 01:32:25;;;;;;;4.72;1.95;;;15.90;99.90;;;;;;4971748;28;20532;-77
2022/08/08 01:35:02;;;;;;;6.00;1.92;;;15.90;99.90;;;;;;4988174;28;20054;-79
2022/08/08 01:37:58;;;;;;;3.75;1.75;;;15.90;99.90;;;;;;4979184;28;20054;-78
2022/08/08 01:40:51;;;;;;;5.83;1.80;;;16.00;99.90;;;;;;4972020;28;20795;-78
2022/08/08 01:43:23;;;;;;;7.10;1.98;;;15.90;99.90;;;;;;4988073;28;20057;-79
2022/08/08 01:46:00;;;;;;;6.00;1.67;;;15.90;99.90;;;;;;4970895;28;20043;-78
2022/08/08 01:49:05;;;;;;;4.43;1.90;;;15.90;99.90;;;;;;4986351;28;20054;-79
2022/08/08 01:51:50;;;;;;;3.38;1.70;;;15.90;99.90;;;;;;4960349;28;20046;-78
2022/08/08 01:54:40;;;;;;;3.60;1.92;;;15.90;99.90;;;;;;4965513;28;20081;-79
2022/08/08 01:57:24;;;;;;;2.65;1.48;;;15.90;99.90;;;;;;4989143;28;20343;-78
2022/08/08 02:00:31;;;;;;;4.03;2.00;;;15.90;99.90;;;;;;4968718;28;20047;-79
2022/08/08 02:03:22;;;;;;;4.20;1.73;;;16.00;99.90;;;;;;4933933;29;20118;-76
2022/08/08 02:06:02;;;;;;;4.72;2.40;;;16.00;99.90;;;;;;4923214;29;20176;-79
2022/08/08 02:08:37;;;;;;;4.88;1.88;;;16.10;99.90;;;;;;4941795;28;20177;-76
2022/08/08 02:11:33;;;;;;;5.27;2.10;;;16.20;99.90;;;;;;4970951;28;20050;-77
2022/08/08 02:14:17;;;;;;;2.60;1.55;;;16.30;99.90;;;;;;4989658;28;20047;-78
2022/08/08 02:17:21;;;;;;;3.78;1.60;;;16.30;99.90;;;;;;4971505;28;20057;-78
2022/08/08 02:19:52;;;;;;;3.63;1.80;;;16.30;99.90;;;;;;4956261;28;20100;-79
2022/08/08 02:22:32;;;;;;;6.78;1.70;;;16.30;99.90;;;;;;4976922;28;20058;-79
2022/08/08 02:25:23;;;;;;;5.07;1.67;;;16.30;99.90;;;;;;4948869;28;20086;-79
2022/08/08 02:28:01;;;;;;;3.88;1.60;;;16.30;99.90;;;;;;4964313;28;20504;-79
2022/08/08 02:30:48;;;;;;;5.47;2.15;;;16.30;99.90;;;;;;4979790;28;20050;-79
2022/08/08 02:33:33;;;;;;;2.78;1.45;;;16.40;99.90;;;;;;4983590;28;20046;-78
2022/08/08 02:36:11;;;;;;;3.33;1.65;;;16.40;99.90;;;;;;4980948;28;20415;-78
2022/08/08 02:39:03;;;;;;;3.17;1.63;;;16.50;99.90;;;;;;4981043;28;20046;-78
2022/08/08 02:41:46;;;;;;;5.03;1.80;;;16.70;99.90;;;;;;4965205;28;20081;-78
2022/08/08 02:44:26;;;;;;;2.60;1.70;;;16.50;99.90;;;;;;4996604;28;20054;-77
2022/08/08 02:47:06;;;;;;;3.35;1.83;;;16.50;99.90;;;;;;4977718;28;20370;-77
2022/08/08 02:49:41;;;;;;;2.72;1.30;;;16.40;99.90;;;;;;4979618;28;20093;-78
2022/08/08 02:52:46;;;;;;;4.03;1.55;;;16.40;99.90;;;;;;4982672;28;20057;-79
2022/08/08 02:55:18;;;;;;;3.85;1.83;;;16.40;99.90;;;;;;4998158;28;20053;-79
2022/08/08 02:58:21;;;;;;;3.55;1.80;;;16.40;99.90;;;;;;4979517;28;20055;-79
2022/08/08 03:01:07;;;;;;;3.40;1.63;;;16.40;99.90;;;;;;4986020;28;20051;-78
2022/08/08 03:03:51;;;;;;;5.50;1.52;;;16.40;99.90;;;;;;4999183;28;20067;-79
2022/08/08 03:06:45;;;;;;;4.00;1.85;;;16.40;99.90;;;;;;4980398;28;20046;-79
2022/08/08 03:09:36;;;;;;;4.60;1.80;;;16.40;99.90;;;;;;4997506;28;20054;-80
2022/08/08 03:12:19;;;;;;;4.03;1.77;;;16.40;99.90;;;;;;4981328;28;20043;-78
2022/08/08 03:14:50;;;;;;;4.43;2.25;;;16.40;99.90;;;;;;4990667;28;20519;-79
2022/08/08 03:17:29;;;;;;;3.85;1.90;;;16.40;99.90;;;;;;4963561;28;20105;-79
2022/08/08 03:22:27;;;;;;;3.38;1.65;;;16.40;99.90;;;;;;4992075;28;20056;-79
2022/08/08 03:24:53;;;;;;;3.13;1.65;;;16.40;99.90;;;;;;4996882;28;20772;-78
2022/08/08 03:27:38;;;;;;;3.28;1.90;;;16.00;99.90;;;;;;4991632;28;20051;-78
2022/08/08 03:30:08;;;;;;;3.28;1.52;;;16.30;99.90;;;;;;4995060;28;21007;-79
2022/08/08 03:35:24;;;;;;;3.80;1.67;;;16.20;99.90;;;;;;4952599;28;20059;-79
2022/08/08 03:37:50;;;;;;;3.80;1.63;;;16.20;99.90;;;;;;4962261;28;20042;-79
2022/08/08 03:40:19;;;;;;;4.63;1.63;;;16.20;99.90;;;;;;4971029;28;20156;-78
2022/08/08 03:42:45;;;;;;;2.90;1.60;;;16.30;99.90;;;;;;4947442;28;20034;-80
2022/08/08 03:45:21;;;;;;;3.22;1.85;;;16.30;99.90;;;;;;4950142;28;20054;-80
2022/08/08 03:48:08;;;;;;;4.82;1.90;;;16.30;99.90;;;;;;4947635;28;20137;-80
2022/08/08 03:50:39;;;;;;;2.63;1.20;;;16.40;99.90;;;;;;4955804;28;20056;-80
2022/08/08 03:53:16;;;;;;;2.92;1.50;;;16.40;99.90;;;;;;4995285;28;20049;-79
2022/08/08 03:55:44;;;;;;;3.50;1.40;;;16.40;99.90;;;;;;4982418;28;20050;-78
2022/08/08 03:58:18;;;;;;;4.28;1.83;;;16.40;99.90;;;;;;4978731;28;20050;-79
2022/08/08 04:00:53;;;;;;;3.92;1.70;;;16.50;99.90;;;;;;4976737;28;20050;-79
2022/08/08 04:03:19;;;;;;;4.32;2.05;;;16.50;99.90;;;;;;4979783;28;20900;-80
2022/08/08 04:05:46;;;;;;;3.42;1.73;;;16.50;99.90;;;;;;4983140;28;20324;-80
2022/08/08 04:08:22;;;;;;;5.53;1.80;;;16.50;99.90;;;;;;4980484;28;20055;-79
2022/08/08 04:10:49;;;;;;;4.82;1.65;;;16.60;99.90;;;;;;4948928;28;20042;-80
2022/08/08 04:13:16;;;;;;;4.35;1.80;;;16.60;99.90;;;;;;4963384;28;20117;-79
2022/08/08 04:15:43;;;;;;;5.03;1.80;;;16.70;99.90;;;;;;4979289;28;20100;-78
2022/08/08 04:18:09;;;;;;;2.13;1.58;;;16.70;99.90;;;;;;4995919;28;20581;-78
2022/08/08 04:20:35;;;;;;;3.28;1.67;;;16.70;99.90;;;;;;4948027;28;20400;-79
2022/08/08 04:23:01;;;;;;;4.10;1.45;;;16.80;99.90;;;;;;4930472;28;20062;-78
2022/08/08 04:25:26;;;;;;;4.68;1.70;;;16.80;99.90;;;;;;4933601;28;20133;-79
2022/08/08 04:27:52;;;;;;;3.15;1.73;;;16.80;99.90;;;;;;4946232;28;20853;-78
2022/08/08 04:30:18;;;;;;;5.05;1.90;;;17.00;99.90;;;;;;4975630;28;20042;-80
2022/08/08 04:32:44;;;;;;;3.45;1.63;;;16.90;99.90;;;;;;4980162;28;20133;-79
2022/08/08 04:35:09;;;;;;;2.70;1.60;;;17.00;99.90;;;;;;4998339;28;20134;-78
2022/08/08 04:37:35;;;;;;;3.28;1.52;;;17.00;99.90;;;;;;4931130;28;20050;-80
2022/08/08 04:40:02;;;;;;;6.47;1.77;;;17.10;99.90;;;;;;4994140;28;20074;-79
2022/08/08 04:42:30;;;;;;;2.22;1.20;;;17.10;99.90;;;;;;4976740;28;20047;-79
2022/08/08 04:44:56;;;;;;;3.90;1.48;;;17.20;99.90;;;;;;4933082;28;20170;-78
2022/08/08 04:47:22;;;;;;;5.70;1.90;;;17.20;99.90;;;;;;4978870;28;20507;-78
2022/08/08 04:49:48;;;;;;;2.60;1.33;;;17.20;99.90;;;;;;4975925;28;20045;-79
2022/08/08 04:52:14;;;;;;;3.42;1.20;;;17.30;99.90;;;;;;4976470;28;20046;-77
2022/08/08 04:54:39;;;;;;;2.58;1.40;;;17.30;99.90;;;;;;4991102;28;20477;-80
2022/08/08 04:57:05;;;;;;;2.30;1.30;;;17.40;99.90;;;;;;4947574;28;20054;-80
2022/08/08 04:59:31;;;;;;;4.38;1.65;;;17.40;99.90;;;;;;4986323;28;20169;-79
2022/08/08 05:01:57;;;;;;;2.83;1.40;;;17.40;99.90;;;;;;4947105;28;20526;-79
2022/08/08 05:04:23;;;;;;;3.03;1.13;;;17.50;99.90;;;;;;4946836;28;20054;-78
2022/08/08 05:06:49;;;;;;;5.60;2.03;;;17.60;99.90;;;;;;4962159;28;20107;-79
2022/08/08 05:09:14;;;;;;;3.00;1.25;;;17.60;99.90;;;;;;4994915;28;20058;-75
2022/08/08 05:11:40;;;;;;;2.72;1.30;;;17.70;99.90;;;;;;4979349;28;20412;-79
2022/08/08 05:14:07;;;;;;;2.30;1.25;;;17.70;99.90;;;;;;4948380;28;20501;-78
2022/08/08 05:16:33;;;;;;;2.70;1.10;;;17.80;99.90;;;;;;4995522;28;20049;-81
2022/08/08 05:18:59;;;;;;;3.78;1.38;;;17.80;99.90;;;;;;4949619;28;20512;-79
2022/08/08 05:21:25;;;;;;;3.85;1.30;;;17.90;99.90;;;;;;4993121;28;20051;-80
2022/08/08 05:23:53;;;;;;;4.57;1.10;;;17.90;99.90;;;;;;4995303;28;20434;-78
2022/08/08 05:26:21;;;;;;;2.63;1.30;;;18.00;99.90;;;;;;4930588;28;20050;-78
2022/08/08 05:28:47;;;;;;;2.67;1.10;;;18.00;99.90;;;;;;4978236;28;20042;-79
2022/08/08 05:31:13;;;;;;;1.77;1.13;;;18.00;99.90;;;;;;4991949;28;20065;-79
2022/08/08 05:33:38;;;;;;;2.92;1.10;;;18.00;99.90;;;;;;4962805;28;20038;-78
2022/08/08 05:36:07;;;;;;;3.10;1.30;;;18.00;99.90;;;;;;4992858;28;20441;-76
2022/08/08 05:38:37;;;;;;;3.33;1.40;;;18.10;99.90;;;;;;4993394;28;20053;-79
2022/08/08 05:41:03;;;;;;;3.78;1.33;;;18.10;99.90;;;;;;4976760;28;20046;-78
2022/08/08 05:43:31;;;;;;;3.55;1.40;;;18.10;99.90;;;;;;4995261;28;20050;-79
2022/08/08 05:46:02;;;;;;;2.83;1.00;;;18.20;99.90;;;;;;4976319;28;20158;-80
2022/08/08 05:48:28;;;;;;;2.08;1.20;;;18.20;99.90;;;;;;4979603;28;20086;-78
2022/08/08 05:50:55;;;;;;;2.80;1.20;;;18.20;99.90;;;;;;4992908;28;20142;-78
2022/08/08 05:53:24;;;;;;;3.80;1.20;;;18.20;99.90;;;;;;4993381;28;20089;-78
2022/08/08 05:55:59;;;;;;;2.80;1.30;;;18.30;99.90;;;;;;4977062;28;20061;-79
2022/08/08 05:58:30;;;;;;;2.15;1.13;;;18.30;99.90;;;;;;4962666;28;20054;-79
2022/08/08 06:01:01;;;;;;;4.03;1.58;;;18.30;99.90;;;;;;4988520;28;20500;-79
2022/08/08 06:03:29;;;;;;;3.75;1.38;;;18.30;99.90;;;;;;4963497;28;20042;-79
2022/08/08 06:06:15;;;;;;;3.45;1.40;;;18.30;99.90;;;;;;4992242;28;20046;-80
2022/08/08 06:08:48;;;;;;;4.35;1.35;;;18.40;99.90;;;;;;4993122;28;20053;-79
2022/08/08 06:11:14;;;;;;;3.47;1.25;;;18.40;99.90;;;;;;4993251;28;20055;-78
2022/08/08 06:13:40;;;;;;;4.35;1.40;;;18.50;99.90;;;;;;4994781;28;20051;-80
2022/08/08 06:16:09;;;;;;;3.78;1.33;;;18.50;99.90;;;;;;4976966;28;20069;-82
2022/08/08 06:18:36;;;;;;;2.63;1.30;;;18.50;99.90;;;;;;4980685;28;20058;-80
2022/08/08 06:21:03;;;;;;;4.05;1.60;;;18.60;99.90;;;;;;4969636;28;20085;-79
2022/08/08 06:23:28;;;;;;;3.85;1.50;;;18.60;99.90;;;;;;4931607;28;20047;-80
2022/08/08 06:26:08;;;;;;;5.57;1.50;;;18.70;99.90;;;;;;4962423;28;20043;-81
2022/08/08 06:28:42;;;;;;;3.75;1.50;;;18.80;99.90;;;;;;4962009;28;20448;-78
2022/08/08 06:31:11;;;;;;;3.05;1.60;;;18.90;99.90;;;;;;4992911;28;20097;-76
2022/08/08 06:34:05;;;;;;;3.70;1.33;;;19.00;99.90;;;;;;4992595;28;20061;-79
2022/08/08 06:36:40;;;;;;;3.50;1.20;;;19.00;99.90;;;;;;4977205;28;20046;-80
2022/08/08 06:39:11;;;;;;;4.90;1.60;;;19.10;99.90;;;;;;4995536;28;20156;-79
2022/08/08 06:41:55;;;;;;;4.22;1.75;;;19.00;99.90;;;;;;4944998;28;20077;-79
2022/08/08 06:44:23;;;;;;;2.45;1.30;;;19.10;99.90;;;;;;4980110;28;20073;-76
2022/08/08 06:46:51;;;;;;;2.78;1.50;;;19.10;99.90;;;;;;4990731;28;20106;-79
2022/08/08 06:49:17;;;;;;;3.92;1.42;;;19.10;99.90;;;;;;4960656;28;20089;-78
2022/08/08 06:51:43;;;;;;;4.18;1.50;;;19.20;99.90;;;;;;4993395;28;20140;-79
2022/08/08 06:54:10;;;;;;;3.65;1.50;;;19.20;99.90;;;;;;4977610;28;20623;-78
2022/08/08 06:56:36;;;;;;;2.95;1.40;;;19.30;99.90;;;;;;4993783;28;20058;-76
2022/08/08 06:59:06;;;;;;;3.45;1.30;;;19.30;99.90;;;;;;4943353;28;20061;-80
2022/08/08 07:01:39;;;;;;;4.85;1.48;;;19.40;99.90;;;;;;4989622;28;20365;-81
2022/08/08 07:04:24;;;;;;;3.97;1.50;;;19.40;99.90;;;;;;4977218;28;20050;-77
2022/08/08 07:07:01;;;;;;;4.70;1.40;;;19.50;99.90;;;;;;4985474;28;20057;-75
2022/08/08 07:09:41;;;;;;;2.42;1.45;;;19.60;99.90;;;;;;4993833;28;20098;-76
2022/08/08 07:12:08;;;;;;;3.58;1.20;;;19.70;99.90;;;;;;4962156;28;20566;-81
2022/08/08 07:14:53;;;;;;;2.03;1.15;;;19.80;99.90;;;;;;4996009;28;20461;-78
2022/08/08 07:17:22;;;;;;;5.22;1.50;;;19.90;99.90;;;;;;4951077;28;20547;-77
2022/08/08 07:19:58;;;;;;;3.50;1.30;;;20.00;99.90;;;;;;4946537;28;20046;-78
2022/08/08 07:22:59;;;;;;;5.35;1.95;;;20.00;99.90;;;;;;4956152;28;20060;-78
2022/08/08 07:25:25;;;;;;;6.18;1.70;;;20.10;99.90;;;;;;4922285;28;20068;-79
2022/08/08 07:28:07;;;;;;;4.10;1.90;;;20.20;99.90;;;;;;4999056;28;20059;-78
2022/08/08 07:30:33;;;;;;;3.78;1.50;;;20.60;99.90;;;;;;4997528;28;20069;-78
2022/08/08 07:32:59;;;;;;;3.00;1.27;;;20.40;99.90;;;;;;4976229;28;20047;-78
2022/08/08 07:35:26;;;;;;;5.45;1.70;;;20.30;99.90;;;;;;5003099;28;20053;-80
2022/08/08 07:37:54;;;;;;;3.45;1.48;;;20.40;99.90;;;;;;5003398;28;20172;-79
2022/08/08 07:40:20;;;;;;;2.83;1.40;;;20.30;99.90;;;;;;4995032;28;20085;-77
2022/08/08 07:42:47;;;;;;;3.85;1.33;;;20.40;99.90;;;;;;4981661;28;20065;-82
2022/08/08 07:45:13;;;;;;;3.90;1.50;;;20.30;99.90;;;;;;4999538;28;20158;-81
2022/08/08 07:47:39;;;;;;;4.60;1.60;;;20.30;99.90;;;;;;4981153;28;20401;-80
2022/08/08 07:50:05;;;;;;;3.85;1.50;;;20.40;99.90;;;;;;4947453;28;20058;-80
2022/08/08 07:52:31;;;;;;;2.50;1.42;;;20.50;99.90;;;;;;4948132;28;20047;-78
2022/08/08 07:55:18;;;;;;;4.30;1.40;;;20.50;99.90;;;;;;4962815;28;20093;-81
2022/08/08 07:57:55;;;;;;;4.05;1.40;;;20.60;99.90;;;;;;4992405;28;20644;-80
2022/08/08 08:00:27;;;;;;;2.17;1.02;;;20.70;99.90;;;;;;4962952;28;20479;-77
2022/08/08 08:03:09;;;;;;;2.92;1.33;;;20.90;99.90;;;;;;4982567;28;20177;-78
2022/08/08 08:05:41;;;;;;;3.78;1.33;;;21.20;99.90;;;;;;4966568;28;20093;-81
2022/08/08 08:08:17;;;;;;;2.65;1.25;;;21.20;99.90;;;;;;4963595;28;20069;-80
2022/08/08 08:10:53;;;;;;;3.65;1.40;;;21.40;99.90;;;;;;4975743;28;20046;-79
2022/08/08 08:13:34;;;;;;;3.67;1.17;;;21.60;99.90;;;;;;4990571;28;20062;-80
2022/08/08 08:16:05;;;;;;;2.55;1.45;;;21.80;99.90;;;;;;4973677;28;20105;-80
2022/08/08 08:18:43;;;;;;;3.13;1.13;;;22.20;99.90;;;;;;4942520;28;20096;-79
2022/08/08 08:21:09;;;;;;;4.13;1.20;;;22.40;99.90;;;;;;4946282;28;20034;-80
2022/08/08 08:23:36;;;;;;;3.58;1.00;;;22.50;99.90;;;;;;4961861;28;20539;-79
2022/08/08 08:26:02;;;;;;;2.65;1.40;;;22.50;99.90;;;;;;4949114;28;20133;-78
2022/08/08 08:28:28;;;;;;;2.67;1.10;;;22.60;99.90;;;;;;4928266;28;20134;-79
2022/08/08 08:30:55;;;;;;;2.50;1.10;;;22.70;99.90;;;;;;4975423;28;20056;-79
2022/08/08 08:33:21;;;;;;;2.15;1.15;;;22.80;99.90;;;;;;4950753;28;20038;-78
2022/08/08 08:35:47;;;;;;;4.03;1.48;;;22.80;99.90;;;;;;4991203;28;20133;-82
2022/08/08 08:38:13;;;;;;;3.53;1.23;;;22.80;99.90;;;;;;4950365;28;20054;-78
2022/08/08 08:40:39;;;;;;;2.85;1.25;;;22.70;99.90;;;;;;4942146;28;20042;-75
2022/08/08 08:43:06;;;;;;;2.20;1.00;;;22.60;99.90;;;;;;4980682;28;20112;-82
2022/08/08 08:45:35;;;;;;;3.05;1.23;;;22.80;99.90;;;;;;4932134;28;20042;-79
2022/08/08 08:48:01;;;;;;;3.70;1.13;;;23.10;99.90;;;;;;4984719;28;20066;-80
2022/08/08 08:50:28;;;;;;;3.15;1.20;;;23.30;99.90;;;;;;4994024;28;20082;-79
2022/08/08 08:52:56;;;;;;;2.95;0.90;;;23.30;99.90;;;;;;4965218;28;20524;-80
2022/08/08 08:55:24;;;;;;;4.07;1.20;;;23.30;99.90;;;;;;4965608;28;20190;-80
2022/08/08 08:57:52;;;;;;;2.92;1.20;;;23.30;99.90;;;;;;4982071;28;20043;-79
2022/08/08 09:00:18;;;;;;;4.15;1.05;;;23.20;99.90;;;;;;4975212;28;20057;-79
2022/08/08 09:02:46;;;;;;;3.28;1.00;;;23.10;99.90;;;;;;4927223;28;20038;-81
2022/08/08 09:05:13;;;;;;;3.17;1.10;;;23.00;99.90;;;;;;4992138;28;20046;-80
2022/08/08 09:07:42;;;;;;;3.97;1.10;;;22.90;99.90;;;;;;4980508;28;20054;-78
2022/08/08 09:10:10;;;;;;;4.18;1.05;;;22.80;99.90;;;;;;4998138;28;20054;-78
2022/08/08 09:12:38;;;;;;;1.73;0.73;;;22.70;99.90;;;;;;4961789;28;20109;-79
2022/08/08 09:15:05;;;;;;;2.58;1.00;;;22.60;99.90;;;;;;4995484;28;20132;-78
2022/08/08 09:17:31;;;;;;;4.30;1.05;;;22.50;99.90;;;;;;4954978;28;20054;-78
2022/08/08 09:19:58;;;;;;;3.35;1.20;;;22.40;99.90;;;;;;4933844;28;20053;-79
2022/08/08 09:22:25;;;;;;;2.97;1.17;;;22.40;99.90;;;;;;4946448;28;20066;-78
2022/08/08 09:24:52;;;;;;;2.00;0.98;;;22.30;99.90;;;;;;4963191;28;20053;-78
2022/08/08 09:27:19;;;;;;;3.83;1.23;;;22.30;99.90;;;;;;4945616;28;20137;-79
2022/08/08 09:30:13;;;;;;;2.88;1.05;;;22.30;99.90;;;;;;4964568;28;20057;-79
2022/08/08 09:32:48;;;;;;;2.88;0.80;;;22.30;99.90;;;;;;4994981;28;20042;-79
2022/08/08 09:35:19;;;;;;;2.42;1.10;;;22.30;99.90;;;;;;4955479;28;20049;-76
2022/08/08 09:37:52;;;;;;;2.75;0.90;;;22.30;99.90;;;;;;4974835;28;20080;-79
2022/08/08 09:40:26;;;;;;;3.17;1.00;;;22.40;99.90;;;;;;4988809;28;20038;-77
2022/08/08 09:43:16;;;;;;;1.65;0.90;;;22.60;99.90;;;;;;4978845;28;20043;-78
2022/08/08 09:46:02;;;;;;;2.72;1.15;;;22.70;99.90;;;;;;4991384;28;20439;-78
2022/08/08 09:48:29;;;;;;;;;;;22.80;99.90;;;;;;4957772;28;20364;-77
2022/08/08 09:50:57;;;;;;;2.70;1.17;;;23.00;99.90;;;;;;4978781;28;20037;-77
2022/08/08 09:53:43;;;;;;;2.38;0.95;;;23.10;99.90;;;;;;4949048;28;20054;-76
2022/08/08 09:56:11;;;;;;;1.75;0.90;;;23.20;99.90;;;;;;4963847;28;21564;-78
2022/08/08 09:58:40;;;;;;;2.63;1.00;;;23.20;99.90;;;;;;4955675;28;20056;-78
2022/08/08 10:01:10;;;;;;;2.38;1.02;;;23.20;99.90;;;;;;4963549;28;20042;-75
2022/08/08 10:03:39;;;;;;;2.95;1.17;;;23.30;99.90;;;;;;4978145;28;20069;-77
2022/08/08 10:06:18;;;;;;;3.70;1.15;;;23.40;99.90;;;;;;4993843;28;20054;-79
2022/08/08 10:08:50;;;;;;;2.35;0.80;;;23.50;99.90;;;;;;4960754;28;20059;-78
2022/08/08 10:11:17;;;;;;;2.47;0.93;;;23.50;99.90;;;;;;4956195;28;20046;-76
2022/08/08 10:13:53;;;;;;;2.67;1.00;;;23.70;99.90;;;;;;4990986;28;20038;-77
2022/08/08 10:16:20;;;;;;;5.85;1.23;;;23.80;99.90;;;;;;4972911;28;20046;-77
2022/08/08 10:18:46;;;;;;;3.85;1.10;;;23.70;99.90;;;;;;4956307;28;20047;-77
2022/08/08 10:21:15;;;;;;;2.25;1.10;;;23.70;99.90;;;;;;4988758;28;20055;-77
2022/08/08 10:23:48;;;;;;;2.47;0.90;;;23.70;99.90;;;;;;4973964;28;20054;-77
2022/08/08 10:26:16;;;;;;;2.55;1.30;;;23.90;99.90;;;;;;4975471;28;20507;-78
2022/08/08 10:28:55;;;;;;;1.85;0.80;;;24.20;99.90;;;;;;4978063;28;20129;-77
2022/08/08 10:34:14;;;;;;;4.38;0.93;;;24.40;99.90;;;;;;4989416;28;20050;-77
2022/08/08 10:36:41;;;;;;;2.35;1.05;;;24.60;99.90;;;;;;4976477;28;20057;-78
2022/08/08 10:39:09;;;;;;;3.05;1.02;;;24.80;99.90;;;;;;4964387;28;20046;-78
2022/08/08 10:41:36;;;;;;;4.47;1.00;;;24.70;99.90;;;;;;4984739;28;20135;-77
2022/08/08 10:44:03;;;;;;;2.63;1.00;;;25.00;99.90;;;;;;4962834;28;20117;-79
2022/08/08 10:46:30;;;;;;;2.33;0.80;;;25.50;99.90;;;;;;4969498;28;20054;-78
2022/08/08 10:48:57;;;;;;;2.85;1.00;;;25.80;99.90;;;;;;4966315;28;20062;-79
2022/08/08 10:51:28;;;;;;;3.15;1.10;;;26.30;99.90;;;;;;4933558;28;20066;-78
2022/08/08 10:53:55;;;;;;;3.67;0.90;;;26.60;99.90;;;;;;4967027;28;20034;-78
2022/08/08 10:56:22;;;;;;;1.00;0.70;;;26.70;99.90;;;;;;4996197;28;20100;-78
2022/08/08 10:59:06;;;;;;;1.48;0.80;;;26.90;99.90;;;;;;4948067;28;20499;-78
2022/08/08 11:01:34;;;;;;;1.67;0.80;;;27.40;99.90;;;;;;4977819;28;20053;-76
2022/08/08 11:04:00;;;;;;;1.45;0.60;;;27.70;99.90;;;;;;4990926;28;20054;-76
2022/08/08 11:06:31;;;;;;;2.65;0.82;;;27.90;99.70;;;;;;4991024;28;20081;-76
2022/08/08 11:09:03;;;;;;;2.15;0.77;;;28.20;98.80;;;;;;4989629;28;20449;-76
2022/08/08 11:11:37;;;;;;;1.73;0.68;;;28.30;98.80;;;;;;4951067;28;20109;-76
2022/08/08 11:14:05;;;;;;;1.63;0.77;;;28.30;97.30;;;;;;4974417;28;20061;-78
2022/08/08 11:16:32;;;;;;;2.45;0.93;;;28.20;98.20;;;;;;4957568;28;20057;-77
2022/08/08 11:19:00;;;;;;;1.80;0.70;;;27.90;98.10;;;;;;4945525;28;20055;-76
2022/08/08 11:21:33;;;;;;;2.10;0.70;;;28.00;98.30;;;;;;4990454;28;20042;-76
2022/08/08 11:24:07;;;;;;;1.95;0.85;;;28.10;98.10;;;;;;4974950;28;20050;-76
2022/08/08 11:26:37;;;;;;;2.63;0.80;;;28.40;97.80;;;;;;4972276;28;20054;-76
2022/08/08 11:29:05;;;;;;;1.75;0.80;;;28.20;97.60;;;;;;4988777;28;20054;-77
2022/08/08 11:31:36;;;;;;;1.92;0.75;;;28.20;97.60;;;;;;4991340;28;20051;-77
2022/08/08 11:34:03;;;;;;;3.40;1.10;;;28.40;97.10;;;;;;4976733;28;20150;-77
2022/08/08 11:36:35;;;;;;;1.98;0.93;;;28.70;96.90;;;;;;4981905;28;20053;-76
2022/08/08 11:39:02;;;;;;;3.78;0.88;;;28.60;96.50;;;;;;4989707;28;20112;-77
2022/08/08 11:41:28;;;;;;;2.22;0.82;;;28.80;96.50;;;;;;4990260;28;20112;-77
2022/08/08 11:43:55;;;;;;;2.58;0.70;;;29.10;96.00;;;;;;4990435;28;20069;-77
2022/08/08 11:46:26;;;;;;;2.63;0.80;;;29.30;95.30;;;;;;4972857;28;20050;-77
2022/08/08 11:48:52;;;;;;;2.22;0.90;;;29.20;94.60;;;;;;4974570;28;20081;-76
2022/08/08 11:51:22;;;;;;;3.83;0.88;;;29.20;94.60;;;;;;4987764;28;20047;-76
2022/08/08 11:53:49;;;;;;;2.10;0.60;;;29.30;94.30;;;;;;4989367;28;20129;-76
2022/08/08 11:56:22;;;;;;;1.88;0.70;;;29.50;94.10;;;;;;4989285;28;20046;-76
2022/08/08 11:58:49;;;;;;;1.67;0.70;;;29.60;93.30;;;;;;4990092;28;20051;-77
2022/08/08 12:01:15;;;;;;;1.92;0.70;;;29.70;93.80;;;;;;4990239;28;20053;-75
2022/08/08 12:03:48;;;;;;;0.85;0.47;;;29.60;93.20;;;;;;4988757;28;20062;-74
2022/08/08 12:06:16;;;;;;;2.67;0.70;;;29.80;93.00;;;;;;4990678;28;20042;-75
2022/08/08 12:08:43;;;;;;;2.75;0.77;;;29.60;92.40;;;;;;4982953;28;20380;-78
2022/08/08 12:11:20;;;;;;;2.05;0.70;;;29.60;92.60;;;;;;4998205;28;20089;-77
2022/08/08 12:13:49;;;;;;;2.55;0.70;;;29.10;92.60;;;;;;4983931;28;20050;-77
2022/08/08 12:16:19;;;;;;;1.95;0.80;;;28.90;93.10;;;;;;4943683;28;20061;-82
2022/08/08 12:18:51;;;;;;;2.40;1.00;;;28.70;93.70;;;;;;4951444;28;20043;-77
2022/08/08 12:21:21;;;;;;;2.05;0.80;;;28.80;93.90;;;;;;4974408;28;20050;-81
2022/08/08 12:23:47;;;;;;;3.45;0.70;;;29.20;93.80;;;;;;4957838;28;20125;-79
2022/08/08 12:26:22;;;;;;;2.45;0.60;;;29.50;93.30;;;;;;4987597;28;20082;-80
2022/08/08 12:28:55;;;;;;;3.45;0.60;;;29.50;92.80;;;;;;4946839;28;20432;-78
2022/08/08 12:31:36;;;;;;;2.80;0.52;;;29.70;93.10;;;;;;4939982;28;20077;-79
2022/08/08 12:34:02;;;;;;;1.63;0.80;;;29.90;93.00;;;;;;4989178;28;20046;-79
2022/08/08 12:36:41;;;;;;;2.38;0.70;;;30.10;93.00;;;;;;4930020;28;20864;-80
2022/08/08 12:39:08;;;;;;;2.90;0.90;;;30.50;92.00;;;;;;4977794;28;20053;-81
2022/08/08 12:41:35;;;;;;;2.00;0.52;;;30.60;92.10;;;;;;4956623;28;20054;-79
2022/08/08 12:44:13;;;;;;;3.42;1.00;;;30.40;91.90;;;;;;4941949;28;20046;-79
2022/08/08 12:46:39;;;;;;;2.83;0.90;;;29.80;91.20;;;;;;4967934;28;20055;-79
2022/08/08 12:49:05;;;;;;;1.95;0.70;;;29.00;92.00;;;;;;4969942;28;20895;-79
2022/08/08 12:51:49;;;;;;;1.33;0.60;;;28.40;92.70;;;;;;4987329;28;20051;-79
2022/08/08 12:54:24;;;;;;;2.10;0.80;;;28.00;93.20;;;;;;4986683;28;20642;-79
2022/08/08 12:56:50;;;;;;;1.58;0.88;;;27.80;93.70;;;;;;4959505;28;20089;-78
2022/08/08 12:59:23;;;;;;;3.53;0.70;;;27.50;94.30;;;;;;4948924;28;20046;-79
2022/08/08 13:01:59;;;;;;;2.47;0.82;;;27.30;94.30;;;;;;4993649;28;20093;-79
2022/08/08 13:04:33;;;;;;;2.20;0.80;;;26.90;94.50;;;;;;4980014;28;20073;-79
2022/08/08 13:07:09;;;;;;;2.53;0.80;;;26.90;95.20;;;;;;4962854;28;20396;-79
2022/08/08 13:09:41;;;;;;;1.75;0.93;;;26.70;95.60;;;;;;4978301;28;20138;-78
2022/08/08 13:12:27;;;;;;;1.85;0.75;;;26.70;95.80;;;;;;4977804;28;20057;-79
2022/08/08 13:14:55;;;;;;;2.47;0.98;;;26.60;95.60;;;;;;4962781;28;20377;-78
2022/08/08 13:17:24;;;;;;;2.80;0.70;;;26.30;96.00;;;;;;4930642;28;20038;-78
2022/08/08 13:19:50;;;;;;;2.20;0.77;;;26.10;96.10;;;;;;4964103;28;20086;-78
2022/08/08 13:22:17;;;;;;;1.95;0.90;;;26.00;96.40;;;;;;4949251;28;20058;-79
2022/08/08 13:24:44;;;;;;;2.05;1.00;;;25.90;96.90;;;;;;4979367;28;20572;-75
2022/08/08 13:27:12;;;;;;;2.83;0.95;;;25.80;97.10;;;;;;4995644;28;20047;-78
2022/08/08 13:29:51;;;;;;;3.60;0.80;;;25.80;97.30;;;;;;4947009;28;20046;-79